sensor_id;sensor_type;location;lat;lon;timestamp;temperature;humidity
9497;DHT22;4786;51.270;4.456;2023-05-07T00:00:46;15.70;99.90
9497;DHT22;4786;51.270;4.456;2023-05-07T00:03:12;15.70;99.90
9497;DHT22;4786;51.270;4.456;2023-05-07T00:05:39;15.70;99.90
9497;DHT22;4786;51.270;4.456;2023-05-07T00:08:05;15.70;99.90
9497;DHT22;4786;51.270;4.456;2023-05-07T00:10:30;15.70;99.90
9497;DHT22;4786;51.270;4.456;2023-05-07T00:12:56;15.70;99.90
9497;DHT22;4786;51.270;4.456;2023-05-07T00:15:22;15.70;99.90
9497;DHT22;4786;51.270;4.456;2023-05-07T00:17:48;15.70;99.90
9497;DHT22;4786;51.270;4.456;2023-05-07T00:20:14;15.80;99.90
9497;DHT22;4786;51.270;4.456;2023-05-07T00:22:40;15.80;99.90
9497;DHT22;4786;51.270;4.456;2023-05-07T00:25:06;15.80;99.90
9497;DHT22;4786;51.270;4.456;2023-05-07T00:27:32;15.80;99.90
9497;DHT22;4786;51.270;4.456;2023-05-07T00:29:58;15.80;99.90
9497;DHT22;4786;51.270;4.456;2023-05-07T00:32:24;15.80;99.90
9497;DHT22;4786;51.270;4.456;2023-05-07T00:34:51;15.80;99.90
9497;DHT22;4786;51.270;4.456;2023-05-07T00:37:16;15.70;99.90
9497;DHT22;4786;51.270;4.456;2023-05-07T00:39:42;15.80;99.90
9497;DHT22;4786;51.270;4.456;2023-05-07T00:42:08;15.80;99.90
9497;DHT22;4786;51.270;4.456;2023-05-07T00:44:34;15.70;99.90
9497;DHT22;4786;51.270;4.456;2023-05-07T00:47:02;15.70;99.90
9497;DHT22;4786;51.270;4.456;2023-05-07T00:49:44;15.70;99.90
9497;DHT22;4786;51.270;4.456;2023-05-07T00:52:15;15.70;99.90
9497;DHT22;4786;51.270;4.456;2023-05-07T00:54:42;15.70;99.90
9497;DHT22;4786;51.270;4.456;2023-05-07T00:57:11;15.60;99.90
9497;DHT22;4786;51.270;4.456;2023-05-07T00:59:37;15.70;99.90
9497;DHT22;4786;51.270;4.456;2023-05-07T01:02:04;15.70;99.90
9497;DHT22;4786;51.270;4.456;2023-05-07T01:04:30;15.70;99.90
9497;DHT22;4786;51.270;4.456;2023-05-07T01:06:57;15.70;99.90
9497;DHT22;4786;51.270;4.456;2023-05-07T01:09:25;15.60;99.90
9497;DHT22;4786;51.270;4.456;2023-05-07T01:11:52;15.70;99.90
9497;DHT22;4786;51.270;4.456;2023-05-07T01:14:19;15.60;99.90
9497;DHT22;4786;51.270;4.456;2023-05-07T01:16:49;15.60;99.90
9497;DHT22;4786;51.270;4.456;2023-05-07T01:19:18;15.60;99.90
9497;DHT22;4786;51.270;4.456;2023-05-07T01:21:46;15.60;99.90
9497;DHT22;4786;51.270;4.456;2023-05-07T01:24:13;15.60;99.90
9497;DHT22;4786;51.270;4.456;2023-05-07T01:26:40;15.60;99.90
9497;DHT22;4786;51.270;4.456;2023-05-07T01:29:06;15.60;99.90
9497;DHT22;4786;51.270;4.456;2023-05-07T01:31:33;15.60;99.90
9497;DHT22;4786;51.270;4.456;2023-05-07T01:34:01;15.60;99.90
9497;DHT22;4786;51.270;4.456;2023-05-07T01:36:28;15.60;99.90
9497;DHT22;4786;51.270;4.456;2023-05-07T01:38:55;15.60;99.90
9497;DHT22;4786;51.270;4.456;2023-05-07T01:41:23;15.60;99.90
9497;DHT22;4786;51.270;4.456;2023-05-07T01:43:50;15.60;99.90
9497;DHT22;4786;51.270;4.456;2023-05-07T01:46:18;15.60;99.90
9497;DHT22;4786;51.270;4.456;2023-05-07T01:48:45;15.60;99.90
9497;DHT22;4786;51.270;4.456;2023-05-07T01:51:12;15.50;99.90
9497;DHT22;4786;51.270;4.456;2023-05-07T01:53:39;15.50;99.90
9497;DHT22;4786;51.270;4.456;2023-05-07T01:56:06;15.50;99.90
9497;DHT22;4786;51.270;4.456;2023-05-07T01:58:32;15.50;99.90
9497;DHT22;4786;51.270;4.456;2023-05-07T02:00:58;15.50;99.90
9497;DHT22;4786;51.270;4.456;2023-05-07T02:03:24;15.40;99.90
9497;DHT22;4786;51.270;4.456;2023-05-07T02:05:50;15.40;99.90
9497;DHT22;4786;51.270;4.456;2023-05-07T02:08:16;15.40;99.90
9497;DHT22;4786;51.270;4.456;2023-05-07T02:10:41;15.40;99.90
9497;DHT22;4786;51.270;4.456;2023-05-07T02:13:08;15.40;99.90
9497;DHT22;4786;51.270;4.456;2023-05-07T02:15:34;15.30;99.90
9497;DHT22;4786;51.270;4.456;2023-05-07T02:18:01;15.30;99.90
9497;DHT22;4786;51.270;4.456;2023-05-07T02:20:27;15.30;99.90
9497;DHT22;4786;51.270;4.456;2023-05-07T02:22:53;15.20;99.90
9497;DHT22;4786;51.270;4.456;2023-05-07T02:25:19;15.30;99.90
9497;DHT22;4786;51.270;4.456;2023-05-07T02:27:45;15.20;99.90
9497;DHT22;4786;51.270;4.456;2023-05-07T02:30:13;15.20;99.90
9497;DHT22;4786;51.270;4.456;2023-05-07T02:32:39;15.20;99.90
9497;DHT22;4786;51.270;4.456;2023-05-07T02:35:05;15.20;99.90
9497;DHT22;4786;51.270;4.456;2023-05-07T02:37:31;15.30;99.90
9497;DHT22;4786;51.270;4.456;2023-05-07T02:39:57;15.30;99.90
9497;DHT22;4786;51.270;4.456;2023-05-07T02:42:23;15.30;99.90
9497;DHT22;4786;51.270;4.456;2023-05-07T02:44:48;15.40;99.90
9497;DHT22;4786;51.270;4.456;2023-05-07T02:47:15;15.40;99.90
9497;DHT22;4786;51.270;4.456;2023-05-07T02:49:41;15.40;99.90
9497;DHT22;4786;51.270;4.456;2023-05-07T02:52:07;15.40;99.90
9497;DHT22;4786;51.270;4.456;2023-05-07T02:54:33;15.40;99.90
9497;DHT22;4786;51.270;4.456;2023-05-07T02:56:59;15.40;99.90
9497;DHT22;4786;51.270;4.456;2023-05-07T02:59:26;15.40;99.90
9497;DHT22;4786;51.270;4.456;2023-05-07T03:01:52;15.40;99.90
9497;DHT22;4786;51.270;4.456;2023-05-07T03:04:18;15.40;99.90
9497;DHT22;4786;51.270;4.456;2023-05-07T03:06:44;15.40;99.90
9497;DHT22;4786;51.270;4.456;2023-05-07T03:09:10;15.50;99.90
9497;DHT22;4786;51.270;4.456;2023-05-07T03:11:36;15.50;99.90
9497;DHT22;4786;51.270;4.456;2023-05-07T03:14:02;15.50;99.90
9497;DHT22;4786;51.270;4.456;2023-05-07T03:16:28;15.50;99.90
9497;DHT22;4786;51.270;4.456;2023-05-07T03:18:54;15.50;99.90
9497;DHT22;4786;51.270;4.456;2023-05-07T03:21:20;15.50;99.90
9497;DHT22;4786;51.270;4.456;2023-05-07T03:23:46;15.40;99.90
9497;DHT22;4786;51.270;4.456;2023-05-07T03:26:12;15.40;99.90
9497;DHT22;4786;51.270;4.456;2023-05-07T03:28:38;15.40;99.90
9497;DHT22;4786;51.270;4.456;2023-05-07T03:31:04;15.40;99.90
9497;DHT22;4786;51.270;4.456;2023-05-07T03:33:33;15.40;99.90
9497;DHT22;4786;51.270;4.456;2023-05-07T03:35:59;15.40;99.90
9497;DHT22;4786;51.270;4.456;2023-05-07T03:38:25;15.40;99.90
9497;DHT22;4786;51.270;4.456;2023-05-07T03:40:51;15.40;99.90
9497;DHT22;4786;51.270;4.456;2023-05-07T03:43:17;15.30;99.90
9497;DHT22;4786;51.270;4.456;2023-05-07T03:45:44;15.40;99.90
9497;DHT22;4786;51.270;4.456;2023-05-07T03:48:10;15.30;99.90
9497;DHT22;4786;51.270;4.456;2023-05-07T03:50:37;15.30;99.90
9497;DHT22;4786;51.270;4.456;2023-05-07T03:53:03;15.30;99.90
9497;DHT22;4786;51.270;4.456;2023-05-07T03:55:29;15.30;99.90
9497;DHT22;4786;51.270;4.456;2023-05-07T03:57:55;15.30;99.90
9497;DHT22;4786;51.270;4.456;2023-05-07T04:00:22;15.30;99.90
9497;DHT22;4786;51.270;4.456;2023-05-07T04:02:48;15.30;99.90
9497;DHT22;4786;51.270;4.456;2023-05-07T04:05:14;15.30;99.90
9497;DHT22;4786;51.270;4.456;2023-05-07T04:07:40;15.30;99.90
9497;DHT22;4786;51.270;4.456;2023-05-07T04:10:07;15.30;99.90
9497;DHT22;4786;51.270;4.456;2023-05-07T04:12:33;15.30;99.90
9497;DHT22;4786;51.270;4.456;2023-05-07T04:14:59;15.30;99.90
9497;DHT22;4786;51.270;4.456;2023-05-07T04:17:25;15.30;99.90
9497;DHT22;4786;51.270;4.456;2023-05-07T04:19:50;15.20;99.90
9497;DHT22;4786;51.270;4.456;2023-05-07T04:22:16;15.30;99.90
9497;DHT22;4786;51.270;4.456;2023-05-07T04:24:42;15.30;99.90
9497;DHT22;4786;51.270;4.456;2023-05-07T04:27:08;15.30;99.90
9497;DHT22;4786;51.270;4.456;2023-05-07T04:29:34;15.30;99.90
9497;DHT22;4786;51.270;4.456;2023-05-07T04:32:00;15.30;99.90
9497;DHT22;4786;51.270;4.456;2023-05-07T04:34:26;15.40;99.90
9497;DHT22;4786;51.270;4.456;2023-05-07T04:36:52;15.40;99.90
9497;DHT22;4786;51.270;4.456;2023-05-07T04:39:17;15.50;99.90
9497;DHT22;4786;51.270;4.456;2023-05-07T04:41:43;15.50;99.90
9497;DHT22;4786;51.270;4.456;2023-05-07T04:44:09;15.50;99.90
9497;DHT22;4786;51.270;4.456;2023-05-07T04:46:34;15.50;99.90
9497;DHT22;4786;51.270;4.456;2023-05-07T04:49:01;15.50;99.90
9497;DHT22;4786;51.270;4.456;2023-05-07T04:51:27;15.60;99.90
9497;DHT22;4786;51.270;4.456;2023-05-07T04:53:53;15.60;99.90
9497;DHT22;4786;51.270;4.456;2023-05-07T04:56:19;15.60;99.90
9497;DHT22;4786;51.270;4.456;2023-05-07T04:58:45;15.60;99.90
9497;DHT22;4786;51.270;4.456;2023-05-07T05:01:11;15.60;99.90
9497;DHT22;4786;51.270;4.456;2023-05-07T05:03:38;15.60;99.90
9497;DHT22;4786;51.270;4.456;2023-05-07T05:06:04;15.70;99.90
9497;DHT22;4786;51.270;4.456;2023-05-07T05:08:30;15.70;99.90
9497;DHT22;4786;51.270;4.456;2023-05-07T05:10:57;15.70;99.90
9497;DHT22;4786;51.270;4.456;2023-05-07T05:13:23;15.70;99.90
9497;DHT22;4786;51.270;4.456;2023-05-07T05:15:48;15.70;99.90
9497;DHT22;4786;51.270;4.456;2023-05-07T05:18:15;15.80;99.90
9497;DHT22;4786;51.270;4.456;2023-05-07T05:20:41;15.80;99.90
9497;DHT22;4786;51.270;4.456;2023-05-07T05:23:07;15.80;99.90
9497;DHT22;4786;51.270;4.456;2023-05-07T05:25:33;15.80;99.90
9497;DHT22;4786;51.270;4.456;2023-05-07T05:27:59;15.80;99.90
9497;DHT22;4786;51.270;4.456;2023-05-07T05:30:25;15.90;99.90
9497;DHT22;4786;51.270;4.456;2023-05-07T05:32:50;15.90;99.90
9497;DHT22;4786;51.270;4.456;2023-05-07T05:35:16;16.00;99.90
9497;DHT22;4786;51.270;4.456;2023-05-07T05:37:42;16.00;99.90
9497;DHT22;4786;51.270;4.456;2023-05-07T05:40:09;15.90;99.90
9497;DHT22;4786;51.270;4.456;2023-05-07T05:42:35;15.90;99.90
9497;DHT22;4786;51.270;4.456;2023-05-07T05:45:00;15.90;99.90
9497;DHT22;4786;51.270;4.456;2023-05-07T05:47:26;15.90;99.90
9497;DHT22;4786;51.270;4.456;2023-05-07T05:49:52;15.90;99.90
9497;DHT22;4786;51.270;4.456;2023-05-07T05:52:18;16.00;99.90
9497;DHT22;4786;51.270;4.456;2023-05-07T05:54:44;16.00;99.90
9497;DHT22;4786;51.270;4.456;2023-05-07T05:57:11;16.00;99.90
9497;DHT22;4786;51.270;4.456;2023-05-07T05:59:37;16.00;99.90
9497;DHT22;4786;51.270;4.456;2023-05-07T06:02:03;16.10;99.90
9497;DHT22;4786;51.270;4.456;2023-05-07T06:04:28;16.10;99.90
9497;DHT22;4786;51.270;4.456;2023-05-07T06:06:54;16.10;99.90
9497;DHT22;4786;51.270;4.456;2023-05-07T06:09:20;16.10;99.90
9497;DHT22;4786;51.270;4.456;2023-05-07T06:11:46;15.90;99.90
9497;DHT22;4786;51.270;4.456;2023-05-07T06:14:12;16.10;99.90
9497;DHT22;4786;51.270;4.456;2023-05-07T06:16:37;16.20;99.90
9497;DHT22;4786;51.270;4.456;2023-05-07T06:19:04;16.20;99.90
9497;DHT22;4786;51.270;4.456;2023-05-07T06:21:30;16.30;99.90
9497;DHT22;4786;51.270;4.456;2023-05-07T06:23:56;16.20;99.90
9497;DHT22;4786;51.270;4.456;2023-05-07T06:26:22;16.30;99.90
9497;DHT22;4786;51.270;4.456;2023-05-07T06:28:48;16.40;99.90
9497;DHT22;4786;51.270;4.456;2023-05-07T06:31:19;16.50;99.90
9497;DHT22;4786;51.270;4.456;2023-05-07T06:33:48;16.50;99.90
9497;DHT22;4786;51.270;4.456;2023-05-07T06:36:14;16.60;99.90
9497;DHT22;4786;51.270;4.456;2023-05-07T06:38:39;16.70;99.90
9497;DHT22;4786;51.270;4.456;2023-05-07T06:41:06;16.80;99.90
9497;DHT22;4786;51.270;4.456;2023-05-07T06:43:32;16.80;99.90
9497;DHT22;4786;51.270;4.456;2023-05-07T06:45:58;16.90;99.90
9497;DHT22;4786;51.270;4.456;2023-05-07T06:48:24;17.00;99.90
9497;DHT22;4786;51.270;4.456;2023-05-07T06:50:50;17.20;99.90
9497;DHT22;4786;51.270;4.456;2023-05-07T06:53:16;17.20;99.90
9497;DHT22;4786;51.270;4.456;2023-05-07T06:55:41;17.30;99.90
9497;DHT22;4786;51.270;4.456;2023-05-07T06:58:07;17.40;99.90
9497;DHT22;4786;51.270;4.456;2023-05-07T07:00:33;17.50;99.90
9497;DHT22;4786;51.270;4.456;2023-05-07T07:03:00;17.50;99.90
9497;DHT22;4786;51.270;4.456;2023-05-07T07:05:26;17.60;99.90
9497;DHT22;4786;51.270;4.456;2023-05-07T07:07:52;17.70;99.90
9497;DHT22;4786;51.270;4.456;2023-05-07T07:10:19;17.80;99.90
9497;DHT22;4786;51.270;4.456;2023-05-07T07:12:45;17.80;99.90
9497;DHT22;4786;51.270;4.456;2023-05-07T07:15:11;17.80;99.90
9497;DHT22;4786;51.270;4.456;2023-05-07T07:17:37;17.90;99.90
9497;DHT22;4786;51.270;4.456;2023-05-07T07:20:03;17.90;99.90
9497;DHT22;4786;51.270;4.456;2023-05-07T07:22:30;18.00;99.90
9497;DHT22;4786;51.270;4.456;2023-05-07T07:24:56;18.00;99.90
9497;DHT22;4786;51.270;4.456;2023-05-07T07:27:22;18.10;99.90
9497;DHT22;4786;51.270;4.456;2023-05-07T07:29:48;18.10;99.90
9497;DHT22;4786;51.270;4.456;2023-05-07T07:32:13;18.10;99.90
9497;DHT22;4786;51.270;4.456;2023-05-07T07:34:40;18.20;99.90
9497;DHT22;4786;51.270;4.456;2023-05-07T07:37:06;18.30;99.90
9497;DHT22;4786;51.270;4.456;2023-05-07T07:39:32;18.30;99.90
9497;DHT22;4786;51.270;4.456;2023-05-07T07:41:59;18.50;99.90
9497;DHT22;4786;51.270;4.456;2023-05-07T07:44:25;18.60;99.90
9497;DHT22;4786;51.270;4.456;2023-05-07T07:46:51;18.60;99.90
9497;DHT22;4786;51.270;4.456;2023-05-07T07:49:18;18.60;99.90
9497;DHT22;4786;51.270;4.456;2023-05-07T07:51:43;18.70;99.90
9497;DHT22;4786;51.270;4.456;2023-05-07T07:54:09;18.70;99.90
9497;DHT22;4786;51.270;4.456;2023-05-07T07:56:34;18.70;99.90
9497;DHT22;4786;51.270;4.456;2023-05-07T07:59:01;18.70;99.90
9497;DHT22;4786;51.270;4.456;2023-05-07T08:01:28;18.70;99.90
9497;DHT22;4786;51.270;4.456;2023-05-07T08:03:55;18.70;99.90
9497;DHT22;4786;51.270;4.456;2023-05-07T08:06:21;18.80;99.90
9497;DHT22;4786;51.270;4.456;2023-05-07T08:08:47;18.90;99.90
9497;DHT22;4786;51.270;4.456;2023-05-07T08:11:13;18.90;99.90
9497;DHT22;4786;51.270;4.456;2023-05-07T08:13:39;18.80;99.90
9497;DHT22;4786;51.270;4.456;2023-05-07T08:16:05;18.80;99.90
9497;DHT22;4786;51.270;4.456;2023-05-07T08:18:31;18.80;99.90
9497;DHT22;4786;51.270;4.456;2023-05-07T08:20:57;18.90;99.90
9497;DHT22;4786;51.270;4.456;2023-05-07T08:23:23;19.00;99.90
9497;DHT22;4786;51.270;4.456;2023-05-07T08:25:52;19.00;99.90
9497;DHT22;4786;51.270;4.456;2023-05-07T08:28:18;19.20;99.90
9497;DHT22;4786;51.270;4.456;2023-05-07T08:30:45;19.20;99.90
9497;DHT22;4786;51.270;4.456;2023-05-07T08:33:11;19.20;99.90
9497;DHT22;4786;51.270;4.456;2023-05-07T08:35:38;19.30;99.90
9497;DHT22;4786;51.270;4.456;2023-05-07T08:38:04;19.30;99.90
9497;DHT22;4786;51.270;4.456;2023-05-07T08:40:36;19.30;99.90
9497;DHT22;4786;51.270;4.456;2023-05-07T08:43:02;19.20;99.90
9497;DHT22;4786;51.270;4.456;2023-05-07T08:45:30;19.20;99.90
9497;DHT22;4786;51.270;4.456;2023-05-07T08:48:00;19.10;99.90
9497;DHT22;4786;51.270;4.456;2023-05-07T08:50:27;19.10;99.90
9497;DHT22;4786;51.270;4.456;2023-05-07T08:52:53;19.20;99.90
9497;DHT22;4786;51.270;4.456;2023-05-07T08:55:20;19.20;99.90
9497;DHT22;4786;51.270;4.456;2023-05-07T08:57:46;19.20;99.90
9497;DHT22;4786;51.270;4.456;2023-05-07T09:00:13;19.20;99.90
9497;DHT22;4786;51.270;4.456;2023-05-07T09:02:39;19.20;99.90
9497;DHT22;4786;51.270;4.456;2023-05-07T09:05:06;19.30;99.90
9497;DHT22;4786;51.270;4.456;2023-05-07T09:07:32;19.30;99.90
9497;DHT22;4786;51.270;4.456;2023-05-07T09:10:01;19.40;99.90
9497;DHT22;4786;51.270;4.456;2023-05-07T09:12:27;19.30;99.90
9497;DHT22;4786;51.270;4.456;2023-05-07T09:14:54;19.40;99.90
9497;DHT22;4786;51.270;4.456;2023-05-07T09:17:20;19.40;99.90
9497;DHT22;4786;51.270;4.456;2023-05-07T09:19:46;19.40;99.90
9497;DHT22;4786;51.270;4.456;2023-05-07T09:22:12;19.40;99.90
9497;DHT22;4786;51.270;4.456;2023-05-07T09:24:39;19.50;99.90
9497;DHT22;4786;51.270;4.456;2023-05-07T09:27:05;19.50;99.90
9497;DHT22;4786;51.270;4.456;2023-05-07T09:29:32;19.50;99.90
9497;DHT22;4786;51.270;4.456;2023-05-07T09:32:05;19.40;99.90
9497;DHT22;4786;51.270;4.456;2023-05-07T09:34:32;19.40;99.90
9497;DHT22;4786;51.270;4.456;2023-05-07T09:37:01;19.50;99.90
9497;DHT22;4786;51.270;4.456;2023-05-07T09:39:41;19.50;99.90
9497;DHT22;4786;51.270;4.456;2023-05-07T09:42:08;19.50;99.90
9497;DHT22;4786;51.270;4.456;2023-05-07T09:44:35;19.50;99.90
9497;DHT22;4786;51.270;4.456;2023-05-07T09:47:02;19.50;99.90
9497;DHT22;4786;51.270;4.456;2023-05-07T09:49:30;19.40;99.90
9497;DHT22;4786;51.270;4.456;2023-05-07T09:52:00;19.40;99.90
9497;DHT22;4786;51.270;4.456;2023-05-07T09:54:26;19.50;99.90
9497;DHT22;4786;51.270;4.456;2023-05-07T09:56:54;19.50;99.90
9497;DHT22;4786;51.270;4.456;2023-05-07T09:59:21;19.50;99.90
9497;DHT22;4786;51.270;4.456;2023-05-07T10:01:49;19.60;99.90
9497;DHT22;4786;51.270;4.456;2023-05-07T10:04:15;19.60;99.90
9497;DHT22;4786;51.270;4.456;2023-05-07T10:06:43;19.60;99.90
9497;DHT22;4786;51.270;4.456;2023-05-07T10:09:10;19.60;99.90
9497;DHT22;4786;51.270;4.456;2023-05-07T10:11:36;19.60;99.90
9497;DHT22;4786;51.270;4.456;2023-05-07T10:14:03;19.60;99.90
9497;DHT22;4786;51.270;4.456;2023-05-07T10:16:32;19.60;99.90
9497;DHT22;4786;51.270;4.456;2023-05-07T10:19:06;19.60;99.90
9497;DHT22;4786;51.270;4.456;2023-05-07T10:21:36;19.70;99.90
9497;DHT22;4786;51.270;4.456;2023-05-07T10:24:08;19.70;99.90
9497;DHT22;4786;51.270;4.456;2023-05-07T10:26:42;19.80;99.90
9497;DHT22;4786;51.270;4.456;2023-05-07T10:34:39;19.70;99.90
9497;DHT22;4786;51.270;4.456;2023-05-07T10:37:06;19.60;99.90
9497;DHT22;4786;51.270;4.456;2023-05-07T10:39:33;19.60;99.90
9497;DHT22;4786;51.270;4.456;2023-05-07T10:42:10;19.60;99.90
9497;DHT22;4786;51.270;4.456;2023-05-07T10:44:37;19.70;99.90
9497;DHT22;4786;51.270;4.456;2023-05-07T10:47:14;19.70;99.90
9497;DHT22;4786;51.270;4.456;2023-05-07T10:52:21;19.70;99.90
9497;DHT22;4786;51.270;4.456;2023-05-07T10:54:47;19.70;99.90
9497;DHT22;4786;51.270;4.456;2023-05-07T10:59:58;19.80;99.90
9497;DHT22;4786;51.270;4.456;2023-05-07T11:05:25;19.80;99.90
9497;DHT22;4786;51.270;4.456;2023-05-07T11:07:55;19.80;99.90
9497;DHT22;4786;51.270;4.456;2023-05-07T11:10:21;19.80;99.90
9497;DHT22;4786;51.270;4.456;2023-05-07T11:12:48;19.70;99.90
9497;DHT22;4786;51.270;4.456;2023-05-07T11:15:15;19.60;99.90
9497;DHT22;4786;51.270;4.456;2023-05-07T11:17:58;19.60;99.90
9497;DHT22;4786;51.270;4.456;2023-05-07T11:26:09;19.80;99.90
9497;DHT22;4786;51.270;4.456;2023-05-07T11:28:42;20.00;99.90
9497;DHT22;4786;51.270;4.456;2023-05-07T11:31:09;19.90;99.90
9497;DHT22;4786;51.270;4.456;2023-05-07T11:33:37;19.90;99.90
9497;DHT22;4786;51.270;4.456;2023-05-07T11:36:04;20.00;99.90
9497;DHT22;4786;51.270;4.456;2023-05-07T11:38:34;20.10;99.90
9497;DHT22;4786;51.270;4.456;2023-05-07T11:41:00;20.20;99.90
9497;DHT22;4786;51.270;4.456;2023-05-07T11:43:27;20.20;99.90
9497;DHT22;4786;51.270;4.456;2023-05-07T11:45:53;20.20;99.90
9497;DHT22;4786;51.270;4.456;2023-05-07T11:48:21;20.20;99.90
9497;DHT22;4786;51.270;4.456;2023-05-07T11:50:51;20.30;99.90
9497;DHT22;4786;51.270;4.456;2023-05-07T11:53:18;20.20;99.90
9497;DHT22;4786;51.270;4.456;2023-05-07T11:55:45;20.20;99.90
9497;DHT22;4786;51.270;4.456;2023-05-07T11:58:12;20.20;99.90
9497;DHT22;4786;51.270;4.456;2023-05-07T12:00:53;20.30;99.90
9497;DHT22;4786;51.270;4.456;2023-05-07T12:03:20;20.30;99.90
9497;DHT22;4786;51.270;4.456;2023-05-07T12:05:47;20.30;99.90
9497;DHT22;4786;51.270;4.456;2023-05-07T12:08:18;20.20;99.90
9497;DHT22;4786;51.270;4.456;2023-05-07T12:10:46;20.20;99.90
9497;DHT22;4786;51.270;4.456;2023-05-07T12:13:22;20.20;99.90
9497;DHT22;4786;51.270;4.456;2023-05-07T12:15:51;20.30;99.90
9497;DHT22;4786;51.270;4.456;2023-05-07T12:18:18;20.40;99.90
9497;DHT22;4786;51.270;4.456;2023-05-07T12:20:44;20.40;99.90
9497;DHT22;4786;51.270;4.456;2023-05-07T12:23:12;20.50;99.90
9497;DHT22;4786;51.270;4.456;2023-05-07T12:25:39;20.50;99.90
9497;DHT22;4786;51.270;4.456;2023-05-07T12:28:07;20.60;99.90
9497;DHT22;4786;51.270;4.456;2023-05-07T12:30:37;20.50;99.90
9497;DHT22;4786;51.270;4.456;2023-05-07T12:33:03;20.50;99.90
9497;DHT22;4786;51.270;4.456;2023-05-07T12:35:39;20.40;99.90
9497;DHT22;4786;51.270;4.456;2023-05-07T12:38:16;20.50;99.90
9497;DHT22;4786;51.270;4.456;2023-05-07T12:40:52;20.60;99.90
9497;DHT22;4786;51.270;4.456;2023-05-07T12:43:27;20.60;99.90
9497;DHT22;4786;51.270;4.456;2023-05-07T12:45:55;20.60;99.90
9497;DHT22;4786;51.270;4.456;2023-05-07T12:48:23;20.70;99.90
9497;DHT22;4786;51.270;4.456;2023-05-07T12:50:53;20.60;99.90
9497;DHT22;4786;51.270;4.456;2023-05-07T12:53:21;20.60;99.90
9497;DHT22;4786;51.270;4.456;2023-05-07T12:55:49;20.60;99.90
9497;DHT22;4786;51.270;4.456;2023-05-07T12:58:21;20.60;99.90
9497;DHT22;4786;51.270;4.456;2023-05-07T13:00:50;20.60;99.90
9497;DHT22;4786;51.270;4.456;2023-05-07T13:03:36;20.60;99.90
9497;DHT22;4786;51.270;4.456;2023-05-07T13:06:07;20.70;99.90
9497;DHT22;4786;51.270;4.456;2023-05-07T13:08:39;20.50;99.90
9497;DHT22;4786;51.270;4.456;2023-05-07T13:11:09;20.60;99.90
9497;DHT22;4786;51.270;4.456;2023-05-07T13:13:36;20.60;99.90
9497;DHT22;4786;51.270;4.456;2023-05-07T13:16:03;20.50;99.90
9497;DHT22;4786;51.270;4.456;2023-05-07T13:18:31;20.60;99.90
9497;DHT22;4786;51.270;4.456;2023-05-07T13:20:57;20.60;99.90
9497;DHT22;4786;51.270;4.456;2023-05-07T13:23:23;20.70;99.90
9497;DHT22;4786;51.270;4.456;2023-05-07T13:25:49;20.70;99.90
9497;DHT22;4786;51.270;4.456;2023-05-07T13:28:15;20.80;99.90
9497;DHT22;4786;51.270;4.456;2023-05-07T13:30:42;20.90;99.90
9497;DHT22;4786;51.270;4.456;2023-05-07T13:33:08;20.90;99.90
9497;DHT22;4786;51.270;4.456;2023-05-07T13:35:35;20.90;99.90
9497;DHT22;4786;51.270;4.456;2023-05-07T13:38:00;20.70;99.90
9497;DHT22;4786;51.270;4.456;2023-05-07T13:40:26;20.80;99.90
9497;DHT22;4786;51.270;4.456;2023-05-07T13:42:53;20.90;99.90
9497;DHT22;4786;51.270;4.456;2023-05-07T13:45:19;20.90;99.90
9497;DHT22;4786;51.270;4.456;2023-05-07T13:47:46;20.90;99.90
9497;DHT22;4786;51.270;4.456;2023-05-07T13:50:12;21.00;99.90
9497;DHT22;4786;51.270;4.456;2023-05-07T13:52:42;21.10;99.90
9497;DHT22;4786;51.270;4.456;2023-05-07T13:55:09;21.20;99.90
9497;DHT22;4786;51.270;4.456;2023-05-07T13:57:38;21.20;99.90
9497;DHT22;4786;51.270;4.456;2023-05-07T14:00:06;21.10;99.90
9497;DHT22;4786;51.270;4.456;2023-05-07T14:02:32;21.20;99.90
9497;DHT22;4786;51.270;4.456;2023-05-07T14:04:58;21.20;99.90
9497;DHT22;4786;51.270;4.456;2023-05-07T14:07:24;21.30;99.90
9497;DHT22;4786;51.270;4.456;2023-05-07T14:09:50;21.30;99.90
9497;DHT22;4786;51.270;4.456;2023-05-07T14:12:16;21.20;99.90
9497;DHT22;4786;51.270;4.456;2023-05-07T14:14:42;21.20;99.90
9497;DHT22;4786;51.270;4.456;2023-05-07T14:17:08;21.20;99.90
9497;DHT22;4786;51.270;4.456;2023-05-07T14:19:34;21.20;99.90
9497;DHT22;4786;51.270;4.456;2023-05-07T14:22:00;21.20;99.90
9497;DHT22;4786;51.270;4.456;2023-05-07T14:24:26;21.20;99.90
9497;DHT22;4786;51.270;4.456;2023-05-07T14:26:52;21.20;99.90
9497;DHT22;4786;51.270;4.456;2023-05-07T14:29:18;21.20;99.90
9497;DHT22;4786;51.270;4.456;2023-05-07T14:31:45;21.20;99.90
9497;DHT22;4786;51.270;4.456;2023-05-07T14:34:11;21.20;99.90
9497;DHT22;4786;51.270;4.456;2023-05-07T14:36:37;21.30;99.90
9497;DHT22;4786;51.270;4.456;2023-05-07T14:39:03;21.40;99.90
9497;DHT22;4786;51.270;4.456;2023-05-07T14:41:29;21.40;99.90
9497;DHT22;4786;51.270;4.456;2023-05-07T14:43:55;21.40;99.90
9497;DHT22;4786;51.270;4.456;2023-05-07T14:46:21;21.40;99.90
9497;DHT22;4786;51.270;4.456;2023-05-07T14:48:47;21.40;99.90
9497;DHT22;4786;51.270;4.456;2023-05-07T14:51:14;21.40;99.90
9497;DHT22;4786;51.270;4.456;2023-05-07T14:53:43;21.50;99.90
9497;DHT22;4786;51.270;4.456;2023-05-07T14:56:08;21.40;99.90
9497;DHT22;4786;51.270;4.456;2023-05-07T14:58:34;21.40;99.90
9497;DHT22;4786;51.270;4.456;2023-05-07T15:01:01;21.40;99.90
9497;DHT22;4786;51.270;4.456;2023-05-07T15:03:27;21.30;99.90
9497;DHT22;4786;51.270;4.456;2023-05-07T15:05:53;21.30;99.90
9497;DHT22;4786;51.270;4.456;2023-05-07T15:08:20;21.40;99.90
9497;DHT22;4786;51.270;4.456;2023-05-07T15:10:46;21.40;99.90
9497;DHT22;4786;51.270;4.456;2023-05-07T15:13:12;21.50;99.90
9497;DHT22;4786;51.270;4.456;2023-05-07T15:15:38;21.50;99.90
9497;DHT22;4786;51.270;4.456;2023-05-07T15:18:05;21.50;99.90
9497;DHT22;4786;51.270;4.456;2023-05-07T15:20:30;21.60;99.90
9497;DHT22;4786;51.270;4.456;2023-05-07T15:22:57;21.60;99.90
9497;DHT22;4786;51.270;4.456;2023-05-07T15:25:23;21.70;99.90
9497;DHT22;4786;51.270;4.456;2023-05-07T15:27:49;21.60;99.90
9497;DHT22;4786;51.270;4.456;2023-05-07T15:30:15;21.50;99.90
9497;DHT22;4786;51.270;4.456;2023-05-07T15:32:42;21.50;99.90
9497;DHT22;4786;51.270;4.456;2023-05-07T15:35:09;21.50;99.90
9497;DHT22;4786;51.270;4.456;2023-05-07T15:37:35;21.60;99.90
9497;DHT22;4786;51.270;4.456;2023-05-07T15:40:01;21.60;99.90
9497;DHT22;4786;51.270;4.456;2023-05-07T15:42:28;21.60;99.90
9497;DHT22;4786;51.270;4.456;2023-05-07T15:44:54;21.70;99.90
9497;DHT22;4786;51.270;4.456;2023-05-07T15:47:21;21.70;99.90
9497;DHT22;4786;51.270;4.456;2023-05-07T15:49:47;21.60;99.90
9497;DHT22;4786;51.270;4.456;2023-05-07T15:52:13;21.60;99.90
9497;DHT22;4786;51.270;4.456;2023-05-07T15:54:40;21.50;99.90
9497;DHT22;4786;51.270;4.456;2023-05-07T15:57:06;21.40;99.90
9497;DHT22;4786;51.270;4.456;2023-05-07T15:59:32;21.30;99.90
9497;DHT22;4786;51.270;4.456;2023-05-07T16:01:58;21.30;99.90
9497;DHT22;4786;51.270;4.456;2023-05-07T16:04:25;21.20;99.90
9497;DHT22;4786;51.270;4.456;2023-05-07T16:06:52;21.20;99.90
9497;DHT22;4786;51.270;4.456;2023-05-07T16:09:19;21.00;99.90
9497;DHT22;4786;51.270;4.456;2023-05-07T16:11:45;20.90;99.90
9497;DHT22;4786;51.270;4.456;2023-05-07T16:14:11;20.90;99.90
9497;DHT22;4786;51.270;4.456;2023-05-07T16:16:37;21.00;99.90
9497;DHT22;4786;51.270;4.456;2023-05-07T16:19:05;21.10;99.90